Cap Theodora — SVAM5 — position and weather

sailwx.info

Track history (hours):
 
Tides and Currents Weather Stations Pressure Air Temp Water Temp Dewpoint Dewpoint Depression Visibility Wind Speed Wind Dir Waves Ship Positions

Cap Theodora

Last reported at 2018-Jan-11 23:23 UTC. Time now 2018-Jan-23 08:24 UTC.
Position N 26°17' W 079°26'.
Warning: this ship's position is 11 days out of date.

Length 274 m; draft 12.4 m.

Type: Ship. MMSI: 240840000.

Date/timePositionNaut miles runAvg speedWind from/ knotsBaromVisibWave heightAir tempDewpointWater temp
2018-Jan-11 23:23N 26°17' W 079°26'410.0
2018-Jan-11 22:56N 26°13' W 079°27'410.1
2018-Jan-11 22:30N 26°08' W 079°28'510.1
2018-Jan-11 22:00N 26°03' W 079°28'510.0
2018-Jan-11 21:28N 25°58' W 079°29'5 9.8
2018-Jan-11 21:01N 25°54' W 079°30'5 9.8
2018-Jan-11 20:30N 25°49' W 079°31'5 9.7
2018-Jan-11 20:00N 25°44' W 079°31'5 9.7
2018-Jan-11 19:30N 25°39' W 079°32'5 9.7
2018-Jan-11 19:00N 25°34' W 079°33'5 9.7
2018-Jan-11 18:30N 25°30' W 079°33'5 9.6
2018-Jan-11 18:00N 25°25' W 079°34'  
2018-Jan-07 16:48N 29°30' W 094°52'3 9.8
2018-Jan-07 16:30N 29°32' W 094°54'5 9.2
2018-Jan-07 16:00N 29°36' W 094°57'4 8.9
2018-Jan-07 15:30N 29°40' W 094°59'4 7.3
2018-Jan-07 15:00N 29°43' W 095°01'3 5.4
2018-Jan-07 14:30N 29°44' W 095°04'2 3.9
2018-Jan-07 13:56N 29°45' W 095°06'1 2.6
2018-Jan-07 13:30N 29°44' W 095°07'  
2018-Jan-04 19:49N 29°44' W 095°07'0 0.3
2018-Jan-04 19:30N 29°44' W 095°07'2 3.7
2018-Jan-04 19:00N 29°45' W 095°06'3 5.5
2018-Jan-04 18:30N 29°44' W 095°03'3 6.5
2018-Jan-04 18:00N 29°42' W 094°60'5 9.3
2018-Jan-04 17:30N 29°38' W 094°58'510.8
2018-Jan-04 17:00N 29°33' W 094°55'510.9
2018-Jan-04 16:30N 29°28' W 094°51'510.6
2018-Jan-04 16:00N 29°24' W 094°49'  
Track history (hours):
 
Tides and Currents Weather Stations Pressure Air Temp Water Temp Dewpoint Dewpoint Depression Visibility Wind Speed Wind Dir Waves Ship Positions

Cap Theodora

Last reported at 2018-Jan-11 23:23 UTC. Time now 2018-Jan-23 08:24 UTC.
Position N 26°17' W 079°26'.
Warning: this ship's position is 11 days out of date.

Length 274 m; draft 12.4 m.

Type: Ship. MMSI: 240840000.

Date/timePositionNaut miles runAvg speedWind from/ knotsBaromVisibWave heightAir tempDewpointWater temp
2018-Jan-11 23:23N 26°17' W 079°26'410.0
2018-Jan-11 22:56N 26°13' W 079°27'410.1
2018-Jan-11 22:30N 26°08' W 079°28'510.1
2018-Jan-11 22:00N 26°03' W 079°28'510.0
2018-Jan-11 21:28N 25°58' W 079°29'5 9.8
2018-Jan-11 21:01N 25°54' W 079°30'5 9.8
2018-Jan-11 20:30N 25°49' W 079°31'5 9.7
2018-Jan-11 20:00N 25°44' W 079°31'5 9.7
2018-Jan-11 19:30N 25°39' W 079°32'5 9.7
2018-Jan-11 19:00N 25°34' W 079°33'5 9.7
2018-Jan-11 18:30N 25°30' W 079°33'5 9.6
2018-Jan-11 18:00N 25°25' W 079°34'  
2018-Jan-07 16:48N 29°30' W 094°52'3 9.8
2018-Jan-07 16:30N 29°32' W 094°54'5 9.2
2018-Jan-07 16:00N 29°36' W 094°57'4 8.9
2018-Jan-07 15:30N 29°40' W 094°59'4 7.3
2018-Jan-07 15:00N 29°43' W 095°01'3 5.4
2018-Jan-07 14:30N 29°44' W 095°04'2 3.9
2018-Jan-07 13:56N 29°45' W 095°06'1 2.6
2018-Jan-07 13:30N 29°44' W 095°07'  
2018-Jan-04 19:49N 29°44' W 095°07'0 0.3
2018-Jan-04 19:30N 29°44' W 095°07'2 3.7
2018-Jan-04 19:00N 29°45' W 095°06'3 5.5
2018-Jan-04 18:30N 29°44' W 095°03'3 6.5
2018-Jan-04 18:00N 29°42' W 094°60'5 9.3
2018-Jan-04 17:30N 29°38' W 094°58'510.8
2018-Jan-04 17:00N 29°33' W 094°55'510.9
2018-Jan-04 16:30N 29°28' W 094°51'510.6
2018-Jan-04 16:00N 29°24' W 094°49'  

Dump ship's entire track history